createdAt,value
2022-08-24T00:00:23.084Z,18.30
2022-08-24T00:01:25.187Z,18.30
2022-08-24T00:02:27.250Z,18.30
2022-08-24T00:03:34.118Z,18.20
2022-08-24T00:04:36.792Z,18.20
2022-08-24T00:05:38.225Z,18.20
2022-08-24T00:06:39.952Z,18.20
2022-08-24T00:07:42.231Z,18.20
2022-08-24T00:08:44.830Z,18.30
2022-08-24T00:09:50.576Z,18.20
2022-08-24T00:10:52.849Z,18.20
2022-08-24T00:11:54.517Z,18.30
2022-08-24T00:12:57.117Z,18.20
2022-08-24T00:13:58.668Z,18.20
2022-08-24T00:15:00.726Z,18.20
2022-08-24T00:16:02.760Z,18.10
2022-08-24T00:17:04.821Z,18.20
2022-08-24T00:18:06.636Z,18.20
2022-08-24T00:19:08.306Z,18.20
2022-08-24T00:20:11.514Z,18.10
2022-08-24T00:21:13.192Z,18.20
2022-08-24T00:22:14.914Z,18.20
2022-08-24T00:23:16.753Z,18.30
2022-08-24T00:24:18.754Z,18.30
2022-08-24T00:25:20.760Z,18.30
2022-08-24T00:26:28.555Z,18.30
2022-08-24T00:27:30.771Z,18.20
2022-08-24T00:28:32.721Z,18.20
2022-08-24T00:29:34.725Z,18.20
2022-08-24T00:30:36.216Z,18.10
2022-08-24T00:31:37.834Z,18.10
2022-08-24T00:32:39.543Z,18.10
2022-08-24T00:33:41.311Z,18.00
2022-08-24T00:34:50.071Z,18.10
2022-08-24T00:36:00.798Z,18.10
2022-08-24T00:37:02.610Z,18.10
2022-08-24T00:38:04.360Z,18.10
2022-08-24T00:39:08.297Z,18.10
2022-08-24T00:40:15.473Z,18.10
2022-08-24T00:41:18.428Z,18.10
2022-08-24T00:42:20.266Z,18.10
2022-08-24T00:43:24.049Z,18.00
2022-08-24T00:44:26.465Z,18.00
2022-08-24T00:45:28.074Z,18.00
2022-08-24T00:46:45.353Z,17.90
2022-08-24T00:48:03.044Z,17.90
2022-08-24T00:49:14.101Z,18.00
2022-08-24T00:50:27.239Z,18.00
2022-08-24T00:51:39.044Z,18.00
2022-08-24T00:52:47.658Z,17.90
2022-08-24T00:53:57.010Z,17.90
2022-08-24T00:55:02.924Z,17.90
2022-08-24T00:56:09.182Z,17.90
2022-08-24T00:57:13.139Z,17.90
2022-08-24T00:58:20.943Z,17.90
2022-08-24T00:59:45.334Z,17.90
2022-08-24T01:00:54.776Z,17.90
2022-08-24T01:01:58.523Z,17.80
2022-08-24T01:03:05.786Z,17.80
2022-08-24T01:04:12.479Z,17.80
2022-08-24T01:05:16.445Z,17.80
2022-08-24T01:06:18.632Z,17.90
2022-08-24T01:07:25.663Z,17.90
2022-08-24T01:08:27.851Z,17.80
2022-08-24T01:09:29.893Z,17.80
2022-08-24T01:10:41.711Z,17.80
2022-08-24T01:11:43.455Z,17.80
2022-08-24T01:13:00.693Z,17.80
2022-08-24T01:14:04.180Z,17.70
2022-08-24T01:15:07.685Z,17.80
2022-08-24T01:16:10.083Z,17.80
2022-08-24T01:17:30.119Z,17.70
2022-08-24T01:18:49.748Z,17.70
2022-08-24T01:19:57.304Z,17.70
2022-08-24T01:21:12.232Z,17.80
2022-08-24T01:22:32.648Z,17.80
2022-08-24T01:23:43.929Z,17.80
2022-08-24T01:24:47.483Z,17.70
2022-08-24T01:25:50.334Z,17.80
2022-08-24T01:26:52.953Z,17.80
2022-08-24T01:27:57.679Z,17.80
2022-08-24T01:29:07.486Z,17.70
2022-08-24T01:30:13.650Z,17.70
2022-08-24T01:31:17.098Z,17.70
2022-08-24T01:32:23.121Z,17.70
2022-08-24T01:33:28.387Z,17.60
2022-08-24T01:34:30.218Z,17.60
2022-08-24T01:35:32.415Z,17.60
2022-08-24T01:36:45.951Z,17.60
2022-08-24T01:37:47.938Z,17.60
2022-08-24T01:38:50.008Z,17.60
2022-08-24T01:39:56.353Z,17.60
2022-08-24T01:41:04.261Z,17.50
2022-08-24T01:42:06.265Z,17.60
2022-08-24T01:43:09.638Z,17.60
2022-08-24T01:44:11.996Z,17.60
2022-08-24T01:45:13.907Z,17.60
2022-08-24T01:46:16.127Z,17.50
2022-08-24T01:47:18.620Z,17.60
2022-08-24T01:48:22.807Z,17.60
2022-08-24T01:49:30.049Z,17.50
2022-08-24T01:50:33.701Z,17.50
2022-08-24T01:51:35.417Z,17.50
2022-08-24T01:53:03.918Z,17.60
2022-08-24T01:54:03.679Z,17.60
2022-08-24T01:55:15.017Z,17.60
2022-08-24T01:56:20.749Z,17.50
2022-08-24T01:57:27.201Z,17.40
2022-08-24T01:58:31.221Z,17.40
2022-08-24T01:59:34.080Z,17.40
2022-08-24T02:00:37.540Z,17.30
2022-08-24T02:01:44.643Z,17.30
2022-08-24T02:02:46.565Z,17.30
2022-08-24T02:03:48.352Z,17.40
2022-08-24T02:04:54.010Z,17.30
2022-08-24T02:05:56.809Z,17.30
2022-08-24T02:06:59.509Z,17.20
2022-08-24T02:08:02.933Z,17.20
2022-08-24T02:09:05.675Z,17.20
2022-08-24T02:10:09.991Z,17.30
2022-08-24T02:11:12.396Z,17.30
2022-08-24T02:12:15.854Z,17.20
2022-08-24T02:13:17.646Z,17.20
2022-08-24T02:14:20.252Z,17.20
2022-08-24T02:15:23.729Z,17.20
2022-08-24T02:16:26.305Z,17.20
2022-08-24T02:17:28.518Z,17.20
2022-08-24T02:18:30.131Z,17.20
2022-08-24T02:19:31.792Z,17.20
2022-08-24T02:20:34.847Z,17.20
2022-08-24T02:21:38.466Z,17.20
2022-08-24T02:22:41.243Z,17.20
2022-08-24T02:23:44.028Z,17.10
2022-08-24T02:24:46.043Z,17.20
2022-08-24T02:25:49.120Z,17.20
2022-08-24T02:26:51.219Z,17.20
2022-08-24T02:27:53.100Z,17.20
2022-08-24T02:28:54.908Z,17.10
2022-08-24T02:29:57.385Z,17.10
2022-08-24T02:30:58.922Z,17.10
2022-08-24T02:32:00.607Z,17.10
2022-08-24T02:33:02.492Z,17.00
2022-08-24T02:34:04.935Z,17.00
2022-08-24T02:35:07.207Z,17.00
2022-08-24T02:36:25.296Z,17.10
2022-08-24T02:37:27.630Z,17.10
2022-08-24T02:38:29.566Z,17.10
2022-08-24T02:39:31.737Z,17.00
2022-08-24T02:40:37.941Z,17.00
2022-08-24T02:41:39.760Z,17.00
2022-08-24T02:42:42.129Z,17.00
2022-08-24T02:43:44.101Z,17.00
2022-08-24T02:44:45.664Z,16.90
2022-08-24T02:45:50.329Z,16.90
2022-08-24T02:46:53.071Z,16.90
2022-08-24T02:47:54.951Z,17.00
2022-08-24T02:49:10.722Z,16.90
2022-08-24T02:50:18.766Z,16.90
2022-08-24T02:51:26.443Z,16.90
2022-08-24T02:52:30.689Z,16.90
2022-08-24T02:53:32.407Z,16.90
2022-08-24T02:54:34.696Z,16.90
2022-08-24T02:55:36.630Z,17.00
2022-08-24T02:56:38.094Z,16.90
2022-08-24T02:57:39.992Z,16.90
2022-08-24T02:58:43.626Z,16.80
2022-08-24T02:59:45.975Z,16.80
2022-08-24T03:00:48.083Z,16.90
2022-08-24T03:01:52.921Z,16.90
2022-08-24T03:02:55.694Z,16.90
2022-08-24T03:03:57.802Z,16.90
2022-08-24T03:04:59.344Z,16.90
2022-08-24T03:06:01.811Z,16.90
2022-08-24T03:07:03.867Z,16.90
2022-08-24T03:08:06.055Z,16.90
2022-08-24T03:09:09.968Z,16.80
2022-08-24T03:10:11.943Z,16.80
2022-08-24T03:11:13.875Z,16.80
2022-08-24T03:12:15.543Z,16.70
2022-08-24T03:13:18.260Z,16.70
2022-08-24T03:14:20.649Z,16.70
2022-08-24T03:15:22.786Z,16.70
2022-08-24T03:16:24.383Z,16.60
2022-08-24T03:17:26.662Z,16.70
2022-08-24T03:18:28.729Z,16.70
2022-08-24T03:19:30.430Z,16.60
2022-08-24T03:20:31.974Z,16.60
2022-08-24T03:21:33.621Z,16.60
2022-08-24T03:22:35.187Z,16.60
2022-08-24T03:23:37.439Z,16.70
2022-08-24T03:24:39.827Z,16.70
2022-08-24T03:25:41.446Z,16.80
2022-08-24T03:26:44.238Z,16.70
2022-08-24T03:27:47.719Z,16.80
2022-08-24T03:28:49.668Z,16.70
2022-08-24T03:29:51.653Z,16.70
2022-08-24T03:30:53.665Z,16.70
2022-08-24T03:31:57.749Z,16.70
2022-08-24T03:33:01.230Z,16.70
2022-08-24T03:34:03.410Z,16.60
2022-08-24T03:35:05.536Z,16.60
2022-08-24T03:36:12.354Z,16.60
2022-08-24T03:37:16.354Z,16.60
2022-08-24T03:38:18.354Z,16.50
2022-08-24T03:39:20.183Z,16.50
2022-08-24T03:40:24.994Z,16.50
2022-08-24T03:41:30.234Z,16.50
2022-08-24T03:42:35.764Z,16.60
2022-08-24T03:43:51.456Z,16.60
2022-08-24T03:44:55.069Z,16.60
2022-08-24T03:45:56.619Z,16.50
2022-08-24T03:46:58.411Z,16.50
2022-08-24T03:48:02.240Z,16.50
2022-08-24T03:49:09.058Z,16.50
2022-08-24T03:50:12.279Z,16.50
2022-08-24T03:51:17.859Z,16.50
2022-08-24T03:52:21.889Z,16.50
2022-08-24T03:53:24.571Z,16.50
2022-08-24T03:54:26.686Z,16.40
2022-08-24T03:55:30.003Z,16.40
2022-08-24T03:56:32.867Z,16.40
2022-08-24T03:57:35.477Z,16.40
2022-08-24T03:58:39.648Z,16.40
2022-08-24T03:59:46.734Z,16.50
2022-08-24T04:00:50.001Z,16.40
2022-08-24T04:02:14.128Z,16.40
2022-08-24T04:03:16.665Z,16.50
2022-08-24T04:04:19.313Z,16.40
2022-08-24T04:05:20.921Z,16.50
2022-08-24T04:06:23.827Z,16.50
2022-08-24T04:07:25.730Z,16.40
2022-08-24T04:08:27.202Z,16.40
2022-08-24T04:09:29.435Z,16.40
2022-08-24T04:10:32.753Z,16.40
2022-08-24T04:11:36.575Z,16.50
2022-08-24T04:12:41.331Z,16.40
2022-08-24T04:13:43.107Z,16.40
2022-08-24T04:14:44.637Z,16.40
2022-08-24T04:15:52.774Z,16.30
2022-08-24T04:16:57.766Z,16.30
2022-08-24T04:18:05.974Z,16.30
2022-08-24T04:19:07.499Z,16.40
2022-08-24T04:20:09.696Z,16.30
2022-08-24T04:21:27.069Z,16.40
2022-08-24T04:22:31.197Z,16.30
2022-08-24T04:23:47.554Z,16.20
2022-08-24T04:24:52.286Z,16.30
2022-08-24T04:25:53.919Z,16.20
2022-08-24T04:26:55.736Z,16.20
2022-08-24T04:27:59.289Z,16.30
2022-08-24T04:29:02.298Z,16.20
2022-08-24T04:30:14.247Z,16.20
2022-08-24T04:31:36.441Z,16.20
2022-08-24T04:32:38.357Z,16.20
2022-08-24T04:33:40.145Z,16.20
2022-08-24T04:34:44.008Z,16.20
2022-08-24T04:35:48.297Z,16.10
2022-08-24T04:36:50.173Z,16.10
2022-08-24T04:37:52.938Z,16.10
2022-08-24T04:38:54.524Z,16.10
2022-08-24T04:40:16.793Z,16.10
2022-08-24T04:41:30.977Z,16.10
2022-08-24T04:42:33.983Z,16.10
2022-08-24T04:43:36.508Z,16.10
2022-08-24T04:44:38.581Z,16.10
2022-08-24T04:45:42.908Z,16.10
2022-08-24T04:46:44.788Z,16.10
2022-08-24T04:47:46.537Z,16.10
2022-08-24T04:48:49.566Z,16.10
2022-08-24T04:49:51.594Z,16.10
2022-08-24T04:50:53.778Z,16.10
2022-08-24T04:51:55.991Z,16.10
2022-08-24T04:52:57.823Z,16.20
2022-08-24T04:53:59.530Z,16.10
2022-08-24T04:55:01.145Z,16.10
2022-08-24T04:56:02.943Z,16.20
2022-08-24T04:57:06.500Z,16.20
2022-08-24T04:58:08.562Z,16.10
2022-08-24T04:59:10.407Z,16.20
2022-08-24T05:00:12.670Z,16.20
2022-08-24T05:01:23.494Z,16.20
2022-08-24T05:02:25.197Z,16.20
2022-08-24T05:03:29.349Z,16.30
2022-08-24T05:04:31.298Z,16.30
2022-08-24T05:05:34.037Z,16.30
2022-08-24T05:06:35.631Z,16.30
2022-08-24T05:07:37.949Z,16.20
2022-08-24T05:08:40.247Z,16.30
2022-08-24T05:09:41.764Z,16.20
2022-08-24T05:10:47.448Z,16.20
2022-08-24T05:11:50.555Z,16.30
2022-08-24T05:12:57.186Z,16.30
2022-08-24T05:13:59.393Z,16.30
2022-08-24T05:15:01.157Z,16.30
2022-08-24T05:16:12.637Z,16.30
2022-08-24T05:17:14.374Z,16.30
2022-08-24T05:18:17.483Z,16.30
2022-08-24T05:19:20.271Z,16.30
2022-08-24T05:20:22.102Z,16.40
2022-08-24T05:21:25.314Z,16.40
2022-08-24T05:22:29.431Z,16.40
2022-08-24T05:23:32.949Z,16.30
2022-08-24T05:24:35.038Z,16.30
2022-08-24T05:25:37.821Z,16.40
2022-08-24T05:26:40.481Z,16.40
2022-08-24T05:27:43.695Z,16.40
2022-08-24T05:28:46.511Z,16.40
2022-08-24T05:29:52.796Z,16.40
2022-08-24T05:30:54.349Z,16.30
2022-08-24T05:31:56.035Z,16.30
2022-08-24T05:32:57.616Z,16.30
2022-08-24T05:34:03.211Z,16.40
2022-08-24T05:35:06.690Z,16.40
2022-08-24T05:36:20.855Z,16.40
2022-08-24T05:37:22.898Z,16.40
2022-08-24T05:38:40.396Z,16.30
2022-08-24T05:39:42.196Z,16.40
2022-08-24T05:40:43.800Z,16.40
2022-08-24T05:41:46.909Z,16.40
2022-08-24T05:42:56.123Z,16.40
2022-08-24T05:43:58.598Z,16.40
2022-08-24T05:45:00.395Z,16.40
2022-08-24T05:46:02.585Z,16.40
2022-08-24T05:47:04.403Z,16.40
2022-08-24T05:48:06.411Z,16.50
2022-08-24T05:49:41.762Z,16.50
2022-08-24T05:50:51.613Z,16.50
2022-08-24T05:51:53.884Z,16.50
2022-08-24T05:52:55.585Z,16.60
2022-08-24T05:53:59.478Z,16.60
2022-08-24T05:55:08.558Z,16.70
2022-08-24T05:56:14.983Z,16.70
2022-08-24T05:57:16.853Z,16.70
2022-08-24T05:58:39.766Z,16.70
2022-08-24T05:59:41.914Z,16.70
2022-08-24T06:00:50.237Z,16.80
2022-08-24T06:01:53.394Z,16.90
2022-08-24T06:02:56.265Z,16.90
2022-08-24T06:03:58.878Z,16.90
2022-08-24T06:05:00.656Z,16.90
2022-08-24T06:06:03.916Z,17.00
2022-08-24T06:07:10.141Z,17.10
2022-08-24T06:08:13.783Z,17.10
2022-08-24T06:09:15.619Z,17.10
2022-08-24T06:10:35.975Z,17.20
2022-08-24T06:11:40.497Z,17.20
2022-08-24T06:12:42.835Z,17.30
2022-08-24T06:13:44.554Z,17.40
2022-08-24T06:14:47.871Z,17.40
2022-08-24T06:16:24.824Z,17.40
2022-08-24T06:17:27.815Z,17.50
2022-08-24T06:18:29.695Z,17.60
2022-08-24T06:19:32.258Z,17.60
2022-08-24T06:20:39.911Z,17.60
2022-08-24T06:21:43.547Z,17.80
2022-08-24T06:22:46.153Z,17.80
2022-08-24T06:23:48.423Z,17.80
2022-08-24T06:25:08.476Z,17.80
2022-08-24T06:26:30.861Z,17.80
2022-08-24T06:27:32.784Z,17.90
2022-08-24T06:28:34.528Z,18.00
2022-08-24T06:29:36.095Z,18.00
2022-08-24T06:31:05.430Z,18.00
2022-08-24T06:32:07.201Z,18.10
2022-08-24T06:33:09.777Z,18.10
2022-08-24T06:34:18.194Z,18.20
2022-08-24T06:35:20.120Z,18.20
2022-08-24T06:36:22.929Z,18.30
2022-08-24T06:37:29.362Z,18.30
2022-08-24T06:38:31.762Z,18.40
2022-08-24T06:39:33.854Z,18.50
2022-08-24T06:40:37.117Z,18.50
2022-08-24T06:41:39.969Z,18.60
2022-08-24T06:42:45.266Z,18.50
2022-08-24T06:44:08.561Z,18.60
2022-08-24T06:45:22.309Z,18.80
2022-08-24T06:46:27.431Z,18.80
2022-08-24T06:47:33.493Z,18.80
2022-08-24T06:48:36.565Z,18.80
2022-08-24T06:49:38.633Z,18.80
2022-08-24T06:50:40.625Z,18.80
2022-08-24T06:51:42.141Z,18.90
2022-08-24T06:52:44.561Z,18.90
2022-08-24T06:53:47.940Z,19.00
2022-08-24T06:54:51.636Z,19.20
2022-08-24T06:55:58.688Z,19.20
2022-08-24T06:57:01.585Z,19.20
2022-08-24T06:58:03.756Z,19.20
2022-08-24T06:59:05.869Z,19.20
2022-08-24T07:00:10.161Z,19.30
2022-08-24T07:01:20.487Z,19.30
2022-08-24T07:02:23.349Z,19.40
2022-08-24T07:03:25.530Z,19.50
2022-08-24T07:04:37.237Z,19.60
2022-08-24T07:05:58.029Z,19.70
2022-08-24T07:07:16.199Z,19.80
2022-08-24T07:08:19.745Z,19.90
2022-08-24T07:09:24.855Z,20.00
2022-08-24T07:10:28.885Z,20.10
2022-08-24T07:11:32.319Z,20.30
2022-08-24T07:12:33.973Z,20.40
2022-08-24T07:13:35.957Z,20.60
2022-08-24T07:14:38.043Z,20.70
2022-08-24T07:15:39.930Z,20.80
2022-08-24T07:16:45.961Z,21.00
2022-08-24T07:17:47.722Z,21.10
2022-08-24T07:18:50.633Z,21.20
2022-08-24T07:19:55.102Z,21.20
2022-08-24T07:21:19.253Z,21.30
2022-08-24T07:22:22.026Z,21.40
2022-08-24T07:23:41.787Z,21.50
2022-08-24T07:24:44.817Z,21.60
2022-08-24T07:25:49.576Z,21.60
2022-08-24T07:26:54.196Z,21.70
2022-08-24T07:27:56.166Z,21.80
2022-08-24T07:29:05.113Z,21.80
2022-08-24T07:30:26.957Z,21.90
2022-08-24T07:31:35.142Z,22.00
2022-08-24T07:32:51.787Z,22.10
2022-08-24T07:33:53.985Z,22.10
2022-08-24T07:34:55.589Z,22.30
2022-08-24T07:35:57.197Z,22.30
2022-08-24T07:37:00.695Z,22.40
2022-08-24T07:38:06.040Z,22.50
2022-08-24T07:39:09.070Z,22.50
2022-08-24T07:40:12.853Z,22.60
2022-08-24T07:41:40.002Z,22.60
2022-08-24T07:42:37.456Z,22.70
2022-08-24T07:43:40.930Z,22.80
2022-08-24T07:44:44.741Z,22.80
2022-08-24T07:45:48.109Z,22.80
2022-08-24T07:46:49.842Z,22.80
2022-08-24T07:47:55.545Z,22.80
2022-08-24T07:49:36.041Z,22.80
2022-08-24T07:50:39.698Z,22.80
2022-08-24T07:51:44.821Z,22.80
2022-08-24T07:52:48.639Z,22.90
2022-08-24T07:53:54.036Z,22.90
2022-08-24T07:55:02.605Z,23.00
2022-08-24T07:56:04.755Z,23.10
2022-08-24T07:57:08.136Z,23.10
2022-08-24T07:58:10.699Z,23.10
2022-08-24T07:59:13.623Z,23.10
2022-08-24T08:00:19.783Z,23.20
2022-08-24T08:01:27.186Z,23.20
2022-08-24T08:02:29.957Z,23.20
2022-08-24T08:03:38.195Z,23.20
2022-08-24T08:04:40.258Z,23.20
2022-08-24T08:05:42.702Z,23.30
2022-08-24T08:06:44.531Z,23.30
2022-08-24T08:07:48.776Z,23.40
2022-08-24T08:08:52.209Z,23.40
2022-08-24T08:09:55.197Z,23.50
2022-08-24T08:10:57.223Z,23.50
2022-08-24T08:11:58.847Z,23.60
2022-08-24T08:13:00.723Z,23.60
2022-08-24T08:14:02.711Z,23.70
2022-08-24T08:15:06.569Z,23.80
2022-08-24T08:16:09.097Z,23.80
2022-08-24T08:17:10.854Z,23.90
2022-08-24T08:18:12.979Z,24.00
2022-08-24T08:19:15.500Z,24.00
2022-08-24T08:20:18.761Z,24.00
2022-08-24T08:21:40.156Z,24.00
2022-08-24T08:23:00.417Z,24.00
2022-08-24T08:24:21.099Z,24.00
2022-08-24T08:25:28.361Z,24.10
2022-08-24T08:26:29.946Z,24.10
2022-08-24T08:27:38.309Z,24.10
2022-08-24T08:28:42.909Z,24.10
2022-08-24T08:29:45.054Z,24.20
2022-08-24T08:30:48.098Z,24.10
2022-08-24T08:31:49.806Z,24.20
2022-08-24T08:32:51.527Z,24.20
2022-08-24T08:33:52.997Z,24.30
2022-08-24T08:34:55.975Z,24.40
2022-08-24T08:36:07.406Z,24.30
2022-08-24T08:37:13.142Z,24.40
2022-08-24T08:38:15.207Z,24.40
2022-08-24T08:39:20.036Z,24.50
2022-08-24T08:40:45.218Z,24.60
2022-08-24T08:41:51.046Z,24.50
2022-08-24T08:43:28.445Z,24.50
2022-08-24T08:44:33.276Z,24.50
2022-08-24T08:46:08.030Z,24.50
2022-08-24T08:47:47.071Z,24.50
2022-08-24T08:49:14.769Z,24.60
2022-08-24T08:50:39.826Z,24.50
2022-08-24T08:52:04.154Z,24.60
2022-08-24T08:53:21.623Z,24.60
2022-08-24T08:54:44.269Z,24.70
2022-08-24T08:56:05.439Z,24.60
2022-08-24T08:57:32.657Z,24.60
2022-08-24T08:59:06.114Z,24.60
2022-08-24T09:00:22.847Z,24.60
2022-08-24T09:01:32.636Z,24.60
2022-08-24T09:03:04.777Z,24.60
2022-08-24T09:04:34.868Z,24.60
2022-08-24T09:05:59.509Z,24.60
2022-08-24T09:07:22.644Z,24.60
2022-08-24T09:08:38.845Z,24.70
2022-08-24T09:10:19.946Z,24.70
2022-08-24T09:11:48.291Z,24.70
2022-08-24T09:13:14.735Z,24.70
2022-08-24T09:14:29.388Z,24.70
2022-08-24T09:15:33.802Z,24.80
2022-08-24T09:17:01.731Z,24.80
2022-08-24T09:18:21.464Z,24.80
2022-08-24T09:19:51.026Z,24.80
2022-08-24T09:21:14.145Z,24.80
2022-08-24T09:22:18.263Z,24.80
2022-08-24T09:23:54.552Z,24.90
2022-08-24T09:25:02.230Z,25.00
2022-08-24T09:26:27.189Z,25.00
2022-08-24T09:28:00.348Z,25.10
2022-08-24T09:29:16.849Z,25.10
2022-08-24T09:30:25.661Z,25.20
2022-08-24T09:32:46.888Z,25.30
2022-08-24T09:34:19.395Z,25.30
2022-08-24T09:35:41.032Z,25.30
2022-08-24T09:36:51.165Z,25.40
2022-08-24T09:37:55.621Z,25.40
2022-08-24T09:39:26.003Z,25.50
2022-08-24T09:40:46.057Z,25.50
2022-08-24T09:42:05.910Z,25.60
2022-08-24T09:43:40.042Z,25.60
2022-08-24T09:44:50.904Z,25.70
2022-08-24T09:46:07.202Z,25.70
2022-08-24T09:47:26.525Z,25.70
2022-08-24T09:48:59.943Z,25.70
2022-08-24T09:50:58.749Z,25.80
2022-08-24T09:52:03.045Z,25.90
2022-08-24T09:53:28.863Z,26.00
2022-08-24T09:54:57.867Z,26.00
2022-08-24T09:56:22.134Z,26.00
2022-08-24T09:58:01.068Z,26.10
2022-08-24T09:59:24.455Z,26.20
2022-08-24T10:00:38.394Z,26.30
2022-08-24T10:01:39.918Z,26.30
2022-08-24T10:03:36.124Z,26.40
2022-08-24T10:05:33.441Z,26.50
2022-08-24T10:06:43.434Z,26.50
2022-08-24T10:08:08.083Z,26.50
2022-08-24T10:09:28.339Z,26.50
2022-08-24T10:11:07.478Z,26.60
2022-08-24T10:12:08.938Z,26.80
2022-08-24T10:13:23.545Z,26.90
2022-08-24T10:14:44.039Z,26.90
2022-08-24T10:16:10.537Z,26.90
2022-08-24T10:17:25.648Z,26.90
2022-08-24T10:19:02.073Z,27.00
2022-08-24T10:20:03.928Z,27.10
2022-08-24T10:21:31.862Z,27.20
2022-08-24T10:22:52.099Z,27.40
2022-08-24T10:24:15.128Z,27.40
2022-08-24T10:25:39.154Z,27.50
2022-08-24T10:26:56.265Z,27.60
2022-08-24T10:28:19.551Z,27.70
2022-08-24T10:29:33.245Z,27.70
2022-08-24T10:31:20.350Z,27.80
2022-08-24T10:32:52.151Z,27.90
2022-08-24T10:34:05.533Z,28.00
2022-08-24T10:35:17.692Z,28.10
2022-08-24T10:36:41.455Z,28.20
2022-08-24T10:38:30.390Z,28.20
2022-08-24T10:40:02.884Z,28.20
2022-08-24T10:41:30.869Z,28.30
2022-08-24T10:43:01.834Z,28.40
2022-08-24T10:44:22.737Z,28.30
2022-08-24T10:46:00.715Z,28.50
2022-08-24T10:47:27.174Z,28.50
2022-08-24T10:48:33.467Z,28.50
2022-08-24T10:49:36.231Z,28.60
2022-08-24T10:50:58.805Z,28.70
2022-08-24T10:52:38.159Z,28.90
2022-08-24T10:53:40.238Z,28.90
2022-08-24T10:54:42.312Z,29.00
2022-08-24T10:55:44.374Z,29.00
2022-08-24T10:56:45.945Z,29.00
2022-08-24T10:58:00.052Z,29.00
2022-08-24T10:59:31.843Z,29.10
2022-08-24T11:00:33.999Z,29.10
2022-08-24T11:01:38.520Z,29.10
2022-08-24T11:02:46.266Z,29.10
2022-08-24T11:03:49.504Z,29.10
2022-08-24T11:04:57.699Z,29.10
2022-08-24T11:05:59.241Z,29.20
2022-08-24T11:07:21.625Z,29.20
2022-08-24T11:08:24.800Z,29.20
2022-08-24T11:09:53.571Z,29.30
2022-08-24T11:11:14.051Z,29.40
2022-08-24T11:12:32.526Z,29.40
2022-08-24T11:13:36.642Z,29.50
2022-08-24T11:14:39.145Z,29.60
2022-08-24T11:15:51.541Z,29.60
2022-08-24T11:16:57.772Z,29.60
2022-08-24T11:18:02.531Z,29.70
2022-08-24T11:19:27.533Z,29.60
2022-08-24T11:20:43.732Z,29.60
2022-08-24T11:21:51.682Z,29.50
2022-08-24T11:23:25.542Z,29.50
2022-08-24T11:24:41.740Z,29.40
2022-08-24T11:26:15.761Z,29.30
2022-08-24T11:27:17.221Z,29.30
2022-08-24T11:28:22.639Z,29.40
2022-08-24T11:29:50.109Z,29.50
2022-08-24T11:30:52.091Z,29.50
2022-08-24T11:31:53.885Z,29.60
2022-08-24T11:32:58.324Z,29.60
2022-08-24T11:34:03.757Z,29.60
2022-08-24T11:35:41.530Z,29.60
2022-08-24T11:36:43.377Z,29.80
2022-08-24T11:37:46.103Z,29.90
2022-08-24T11:38:47.758Z,29.90
2022-08-24T11:39:49.422Z,30.00
2022-08-24T11:41:23.297Z,30.10
2022-08-24T11:42:52.211Z,30.10
2022-08-24T11:44:10.351Z,30.10
2022-08-24T11:45:29.137Z,30.20
2022-08-24T11:46:40.288Z,30.30
2022-08-24T11:48:12.334Z,30.40
2022-08-24T11:49:22.028Z,30.30
2022-08-24T11:50:30.063Z,30.30
2022-08-24T11:51:59.669Z,30.50
2022-08-24T11:53:20.167Z,30.60
2022-08-24T11:54:46.597Z,30.60
2022-08-24T11:56:12.293Z,30.70
2022-08-24T11:57:28.773Z,30.90
2022-08-24T11:58:54.184Z,30.80
2022-08-24T12:00:10.864Z,30.80
2022-08-24T12:01:30.405Z,30.80
2022-08-24T12:02:39.066Z,30.80
2022-08-24T12:04:17.043Z,30.90
2022-08-24T12:05:44.869Z,31.00
2022-08-24T12:07:11.547Z,31.00
2022-08-24T12:08:19.081Z,31.00
2022-08-24T12:09:55.230Z,30.80
2022-08-24T12:11:34.784Z,30.80
2022-08-24T12:12:46.722Z,30.80
2022-08-24T12:13:55.552Z,30.70
2022-08-24T12:15:06.259Z,30.70
2022-08-24T12:16:33.864Z,30.70
2022-08-24T12:17:51.418Z,30.70
2022-08-24T12:19:19.169Z,30.70
2022-08-24T12:20:41.088Z,30.60
2022-08-24T12:21:46.746Z,30.60
2022-08-24T12:22:50.537Z,30.70
2022-08-24T12:24:03.836Z,30.80
2022-08-24T12:25:28.489Z,30.90
2022-08-24T12:26:33.345Z,30.70
2022-08-24T12:27:38.609Z,30.60
2022-08-24T12:28:56.511Z,30.70
2022-08-24T12:30:05.378Z,30.70
2022-08-24T12:31:38.214Z,30.70
2022-08-24T12:32:45.230Z,30.80
2022-08-24T12:33:52.499Z,30.90
2022-08-24T12:35:04.045Z,30.90
2022-08-24T12:36:17.346Z,31.10
2022-08-24T12:37:29.398Z,31.10
2022-08-24T12:38:42.828Z,31.00
2022-08-24T12:40:01.113Z,31.00
2022-08-24T12:41:27.082Z,31.10
2022-08-24T12:42:39.592Z,31.10
2022-08-24T12:44:01.092Z,31.20
2022-08-24T12:45:08.079Z,31.20
2022-08-24T12:46:12.795Z,31.40
2022-08-24T12:47:23.300Z,31.40
2022-08-24T12:48:39.495Z,31.30
2022-08-24T12:49:49.729Z,31.30
2022-08-24T12:51:28.307Z,31.20
2022-08-24T12:52:59.111Z,31.30
2022-08-24T12:54:22.778Z,31.40
2022-08-24T12:55:53.893Z,31.30
2022-08-24T12:57:07.500Z,31.10
2022-08-24T12:58:34.685Z,31.00
2022-08-24T12:59:39.113Z,31.10
2022-08-24T13:00:46.452Z,31.20
2022-08-24T13:02:11.614Z,31.20
2022-08-24T13:03:35.233Z,31.20
2022-08-24T13:04:39.662Z,31.20
2022-08-24T13:05:46.008Z,31.20
2022-08-24T13:06:59.941Z,31.30
2022-08-24T13:08:12.156Z,31.30
2022-08-24T13:09:28.721Z,31.50
2022-08-24T13:10:40.538Z,31.60
2022-08-24T13:11:42.651Z,31.60
2022-08-24T13:12:45.149Z,31.60
2022-08-24T13:13:46.918Z,31.60
2022-08-24T13:14:50.958Z,31.70
2022-08-24T13:15:59.399Z,31.70
2022-08-24T13:17:00.905Z,31.80
2022-08-24T13:18:14.629Z,31.80
2022-08-24T13:19:41.370Z,31.80
2022-08-24T13:20:43.771Z,32.00
2022-08-24T13:21:55.862Z,32.10
2022-08-24T13:23:12.861Z,32.00
2022-08-24T13:24:29.974Z,32.00
2022-08-24T13:25:46.817Z,32.00
2022-08-24T13:26:48.549Z,31.90
2022-08-24T13:28:09.302Z,31.80
2022-08-24T13:29:14.490Z,31.90
2022-08-24T13:30:24.830Z,32.00
2022-08-24T13:31:42.608Z,32.00
2022-08-24T13:32:49.670Z,32.10
2022-08-24T13:33:54.374Z,32.10
2022-08-24T13:34:57.977Z,32.20
2022-08-24T13:36:04.823Z,32.20
2022-08-24T13:37:10.714Z,32.30
2022-08-24T13:38:38.900Z,32.30
2022-08-24T13:39:49.880Z,32.30
2022-08-24T13:41:04.489Z,32.20
2022-08-24T13:42:33.652Z,32.20
2022-08-24T13:43:57.990Z,32.30
2022-08-24T13:45:33.043Z,32.50
2022-08-24T13:47:09.409Z,32.50
2022-08-24T13:48:47.110Z,32.60
2022-08-24T13:50:01.651Z,32.70
2022-08-24T13:51:28.708Z,32.60
2022-08-24T13:53:28.822Z,32.60
2022-08-24T13:54:45.161Z,32.70
2022-08-24T13:56:12.083Z,32.70
2022-08-24T13:57:22.377Z,32.70
2022-08-24T13:58:58.188Z,32.70
2022-08-24T14:00:50.609Z,32.70
2022-08-24T14:02:10.654Z,32.80
2022-08-24T14:03:22.038Z,32.80
2022-08-24T14:04:26.685Z,32.50
2022-08-24T14:05:31.248Z,32.60
2022-08-24T14:06:53.678Z,32.60
2022-08-24T14:08:18.937Z,32.70
2022-08-24T14:09:39.144Z,32.70
2022-08-24T14:10:53.841Z,32.80
2022-08-24T14:12:21.561Z,32.80
2022-08-24T14:13:36.398Z,32.80
2022-08-24T14:15:02.692Z,32.90
2022-08-24T14:16:41.713Z,32.90
2022-08-24T14:18:07.711Z,32.80
2022-08-24T14:19:26.410Z,32.90
2022-08-24T14:20:51.050Z,32.90
2022-08-24T14:22:09.422Z,32.90
2022-08-24T14:23:22.132Z,32.90
2022-08-24T14:24:32.627Z,33.00
2022-08-24T14:25:36.118Z,33.00
2022-08-24T14:26:40.744Z,32.90
2022-08-24T14:28:08.592Z,32.80
2022-08-24T14:29:19.368Z,32.80
2022-08-24T14:30:23.395Z,32.60
2022-08-24T14:31:28.435Z,32.60
2022-08-24T14:32:31.295Z,32.50
2022-08-24T14:33:36.177Z,32.50
2022-08-24T14:34:54.864Z,32.60
2022-08-24T14:36:14.263Z,32.60
2022-08-24T14:37:18.734Z,32.70
2022-08-24T14:38:23.150Z,32.70
2022-08-24T14:39:36.811Z,32.80
2022-08-24T14:41:09.484Z,32.80
2022-08-24T14:42:35.101Z,33.00
2022-08-24T14:44:07.652Z,33.10
2022-08-24T14:45:15.258Z,33.10
2022-08-24T14:46:29.318Z,33.00
2022-08-24T14:47:58.889Z,32.90
2022-08-24T14:49:44.528Z,33.00
2022-08-24T14:51:23.861Z,32.90
2022-08-24T14:52:43.633Z,33.00
2022-08-24T14:54:02.393Z,33.00
2022-08-24T14:55:04.182Z,33.00
2022-08-24T14:56:25.110Z,33.00
2022-08-24T14:58:01.387Z,33.00
2022-08-24T14:59:26.949Z,33.00
2022-08-24T15:00:48.750Z,33.10
2022-08-24T15:02:21.239Z,33.20
2022-08-24T15:04:01.354Z,33.20
2022-08-24T15:05:08.510Z,33.20